Time;durP1;ratioP1;P1;durP2;ratioP2;P2;SDS_P1;SDS_P2;PMS_P1;PMS_P2;Temp;Humidity;BMP_temperature;BMP_pressure;BME280_temperature;BME280_humidity;BME280_pressure;Samples;Min_cycle;Max_cycle;Signal;HPM_P1;HPM_P2
2019/08/06 00:00:39;;;;;;;7.3;6.6;;;;;;;19.03;78.53613;95001.45;;;;
2019/08/06 00:02:03;;;;;;;7.55;6.5;;;;;;;18.81;79.00781;94996.72;;;;
2019/08/06 00:03:04;;;;;;;7.55;6.5;;;;;;;18.81;79.00781;94996.72;;;;
2019/08/06 00:04:06;;;;;;;7.55;6.5;;;;;;;18.81;79.00781;94996.72;;;;
2019/08/06 00:05:07;;;;;;;7.55;6.5;;;;;;;18.81;79.00781;94996.72;;;;
2019/08/06 00:06:09;;;;;;;7.55;6.5;;;;;;;18.81;79.00781;94996.72;;;;
2019/08/06 00:07:11;;;;;;;7.55;6.5;;;;;;;18.81;79.00781;94996.72;;;;
2019/08/06 00:08:13;;;;;;;7.55;6.5;;;;;;;18.81;79.00781;94996.72;;;;
2019/08/06 00:09:14;;;;;;;7.55;6.5;;;;;;;18.81;79.00781;94996.72;;;;
2019/08/06 00:10:20;;;;;;;7.55;6.5;;;;;;;18.81;79.00781;94996.72;;;;
2019/08/06 00:11:21;;;;;;;7.55;6.5;;;;;;;18.81;79.00781;94996.72;;;;
2019/08/06 00:12:22;;;;;;;7.45;6.749999;;;;;;;18.8;79.58398;95007.79;;;;
2019/08/06 00:13:24;;;;;;;7.45;6.749999;;;;;;;18.8;79.58398;95007.79;;;;
2019/08/06 00:14:25;;;;;;;7.45;6.749999;;;;;;;18.8;79.58398;95007.79;;;;
2019/08/06 00:15:26;;;;;;;7.45;6.749999;;;;;;;18.8;79.58398;95007.79;;;;
2019/08/06 00:16:27;;;;;;;7.45;6.749999;;;;;;;18.8;79.58398;95007.79;;;;
2019/08/06 00:17:28;;;;;;;7.45;6.749999;;;;;;;18.8;79.58398;95007.79;;;;
2019/08/06 00:18:29;;;;;;;7.45;6.749999;;;;;;;18.8;79.58398;95007.79;;;;
2019/08/06 00:19:31;;;;;;;7.45;6.749999;;;;;;;18.8;79.58398;95007.79;;;;
2019/08/06 00:20:32;;;;;;;7.45;6.749999;;;;;;;18.8;79.58398;95007.79;;;;
2019/08/06 00:21:49;;;;;;;7.45;6.749999;;;;;;;18.8;79.58398;95007.79;;;;
2019/08/06 00:22:50;;;;;;;7.35;6.65;;;;;;;18.76;80.1084;95014.57;;;;
2019/08/06 00:23:51;;;;;;;7.35;6.65;;;;;;;18.76;80.1084;95014.57;;;;
2019/08/06 00:24:52;;;;;;;7.35;6.65;;;;;;;18.76;80.1084;95014.57;;;;
2019/08/06 00:25:53;;;;;;;7.35;6.65;;;;;;;18.76;80.1084;95014.57;;;;
2019/08/06 00:26:54;;;;;;;7.35;6.65;;;;;;;18.76;80.1084;95014.57;;;;
2019/08/06 00:27:56;;;;;;;7.35;6.65;;;;;;;18.76;80.1084;95014.57;;;;
2019/08/06 00:28:57;;;;;;;7.35;6.65;;;;;;;18.76;80.1084;95014.57;;;;
2019/08/06 00:29:58;;;;;;;7.35;6.65;;;;;;;18.76;80.1084;95014.57;;;;
2019/08/06 00:30:59;;;;;;;7.35;6.65;;;;;;;18.76;80.1084;95014.57;;;;
2019/08/06 00:32:00;;;;;;;7.35;6.65;;;;;;;18.76;80.1084;95014.57;;;;
2019/08/06 00:33:02;;;;;;;7.35;6.65;;;;;;;18.76;80.1084;95014.57;;;;
2019/08/06 00:34:03;;;;;;;7.800001;6.799999;;;;;;;18.72;80.71289;95019.81;;;;
2019/08/06 00:35:04;;;;;;;7.800001;6.799999;;;;;;;18.72;80.71289;95019.81;;;;
2019/08/06 00:36:06;;;;;;;7.800001;6.799999;;;;;;;18.72;80.71289;95019.81;;;;
2019/08/06 00:37:07;;;;;;;7.800001;6.799999;;;;;;;18.72;80.71289;95019.81;;;;
2019/08/06 00:38:09;;;;;;;7.800001;6.799999;;;;;;;18.72;80.71289;95019.81;;;;
2019/08/06 00:39:10;;;;;;;7.800001;6.799999;;;;;;;18.72;80.71289;95019.81;;;;
2019/08/06 00:40:11;;;;;;;7.800001;6.799999;;;;;;;18.72;80.71289;95019.81;;;;
2019/08/06 00:41:13;;;;;;;7.800001;6.799999;;;;;;;18.72;80.71289;95019.81;;;;
2019/08/06 00:42:14;;;;;;;7.800001;6.799999;;;;;;;18.72;80.71289;95019.81;;;;
2019/08/06 00:43:15;;;;;;;7.800001;6.799999;;;;;;;18.72;80.71289;95019.81;;;;
2019/08/06 00:44:16;;;;;;;7.55;6.849999;;;;;;;18.49;81.34473;95024.34;;;;
2019/08/06 00:45:18;;;;;;;7.55;6.849999;;;;;;;18.49;81.34473;95024.34;;;;
2019/08/06 00:46:19;;;;;;;7.55;6.849999;;;;;;;18.49;81.34473;95024.34;;;;
2019/08/06 00:47:21;;;;;;;7.55;6.849999;;;;;;;18.49;81.34473;95024.34;;;;
2019/08/06 00:48:22;;;;;;;7.55;6.849999;;;;;;;18.49;81.34473;95024.34;;;;
2019/08/06 00:49:23;;;;;;;7.55;6.849999;;;;;;;18.49;81.34473;95024.34;;;;
2019/08/06 00:50:24;;;;;;;7.55;6.849999;;;;;;;18.49;81.34473;95024.34;;;;
2019/08/06 00:51:26;;;;;;;7.55;6.849999;;;;;;;18.49;81.34473;95024.34;;;;
2019/08/06 00:52:27;;;;;;;7.55;6.849999;;;;;;;18.49;81.34473;95024.34;;;;
2019/08/06 00:53:28;;;;;;;7.55;6.849999;;;;;;;18.49;81.34473;95024.34;;;;
2019/08/06 00:54:29;;;;;;;7.599999;6.849999;;;;;;;18.32;82.47656;95012.05;;;;
2019/08/06 00:55:31;;;;;;;7.599999;6.849999;;;;;;;18.32;82.47656;95012.05;;;;
2019/08/06 00:56:32;;;;;;;7.599999;6.849999;;;;;;;18.32;82.47656;95012.05;;;;
2019/08/06 00:57:34;;;;;;;7.599999;6.849999;;;;;;;18.32;82.47656;95012.05;;;;
2019/08/06 00:58:35;;;;;;;7.599999;6.849999;;;;;;;18.32;82.47656;95012.05;;;;
2019/08/06 00:59:36;;;;;;;7.599999;6.849999;;;;;;;18.32;82.47656;95012.05;;;;
2019/08/06 01:00:37;;;;;;;7.599999;6.849999;;;;;;;18.32;82.47656;95012.05;;;;
2019/08/06 01:01:52;;;;;;;7.599999;6.849999;;;;;;;18.32;82.47656;95012.05;;;;
2019/08/06 01:02:53;;;;;;;7.599999;6.849999;;;;;;;18.32;82.47656;95012.05;;;;
2019/08/06 01:03:54;;;;;;;7.599999;6.849999;;;;;;;18.32;82.47656;95012.05;;;;
2019/08/06 01:04:57;;;;;;;7.5;6.799999;;;;;;;18.09;83.50781;94999.19;;;;
2019/08/06 01:05:58;;;;;;;7.5;6.799999;;;;;;;18.09;83.50781;94999.19;;;;
2019/08/06 01:07:00;;;;;;;7.5;6.799999;;;;;;;18.09;83.50781;94999.19;;;;
2019/08/06 01:08:01;;;;;;;7.5;6.799999;;;;;;;18.09;83.50781;94999.19;;;;
2019/08/06 01:09:03;;;;;;;7.5;6.799999;;;;;;;18.09;83.50781;94999.19;;;;
2019/08/06 01:10:08;;;;;;;7.5;6.799999;;;;;;;18.09;83.50781;94999.19;;;;
2019/08/06 01:11:11;;;;;;;7.5;6.799999;;;;;;;18.09;83.50781;94999.19;;;;
2019/08/06 01:12:13;;;;;;;7.5;6.799999;;;;;;;18.09;83.50781;94999.19;;;;
2019/08/06 01:13:14;;;;;;;7.5;6.799999;;;;;;;18.09;83.50781;94999.19;;;;
2019/08/06 01:14:15;;;;;;;7.5;6.799999;;;;;;;18.09;83.50781;94999.19;;;;
2019/08/06 01:15:16;;;;;;;7.5;6.799999;;;;;;;18.09;83.50781;94999.19;;;;
2019/08/06 01:16:19;;;;;;;7.85;7.149999;;;;;;;17.91;84.76563;95009.9;;;;
2019/08/06 01:17:20;;;;;;;7.85;7.149999;;;;;;;17.91;84.76563;95009.9;;;;
2019/08/06 01:18:22;;;;;;;7.85;7.149999;;;;;;;17.91;84.76563;95009.9;;;;
2019/08/06 01:19:23;;;;;;;7.85;7.149999;;;;;;;17.91;84.76563;95009.9;;;;
2019/08/06 01:20:24;;;;;;;7.85;7.149999;;;;;;;17.91;84.76563;95009.9;;;;
2019/08/06 01:21:51;;;;;;;7.85;7.149999;;;;;;;17.91;84.76563;95009.9;;;;
2019/08/06 01:22:52;;;;;;;7.85;7.149999;;;;;;;17.91;84.76563;95009.9;;;;
2019/08/06 01:23:53;;;;;;;7.85;7.149999;;;;;;;17.91;84.76563;95009.9;;;;
2019/08/06 01:24:55;;;;;;;7.85;7.149999;;;;;;;17.91;84.76563;95009.9;;;;
2019/08/06 01:25:56;;;;;;;7.85;7.149999;;;;;;;17.91;84.76563;95009.9;;;;
2019/08/06 01:26:57;;;;;;;8.050002;7.299999;;;;;;;17.7;85.83203;95005.7;;;;
2019/08/06 01:27:58;;;;;;;8.050002;7.299999;;;;;;;17.7;85.83203;95005.7;;;;
2019/08/06 01:29:00;;;;;;;8.050002;7.299999;;;;;;;17.7;85.83203;95005.7;;;;
2019/08/06 01:30:01;;;;;;;8.050002;7.299999;;;;;;;17.7;85.83203;95005.7;;;;
2019/08/06 01:31:03;;;;;;;8.050002;7.299999;;;;;;;17.7;85.83203;95005.7;;;;
2019/08/06 01:32:18;;;;;;;8.050002;7.299999;;;;;;;17.7;85.83203;95005.7;;;;
2019/08/06 01:33:19;;;;;;;8.050002;7.299999;;;;;;;17.7;85.83203;95005.7;;;;
2019/08/06 01:34:20;;;;;;;8.050002;7.299999;;;;;;;17.7;85.83203;95005.7;;;;
2019/08/06 01:35:21;;;;;;;8.050002;7.299999;;;;;;;17.7;85.83203;95005.7;;;;
2019/08/06 01:36:22;;;;;;;8.050002;7.299999;;;;;;;17.7;85.83203;95005.7;;;;
2019/08/06 01:37:24;;;;;;;8.45;7.55;;;;;;;17.58;87.02344;95003.91;;;;
2019/08/06 01:38:25;;;;;;;8.45;7.55;;;;;;;17.58;87.02344;95003.91;;;;
2019/08/06 01:39:26;;;;;;;8.45;7.55;;;;;;;17.58;87.02344;95003.91;;;;
2019/08/06 01:40:28;;;;;;;8.45;7.55;;;;;;;17.58;87.02344;95003.91;;;;
2019/08/06 01:41:29;;;;;;;8.45;7.55;;;;;;;17.58;87.02344;95003.91;;;;
2019/08/06 01:42:31;;;;;;;8.45;7.55;;;;;;;17.58;87.02344;95003.91;;;;
2019/08/06 01:43:32;;;;;;;8.45;7.55;;;;;;;17.58;87.02344;95003.91;;;;
2019/08/06 01:44:33;;;;;;;8.45;7.55;;;;;;;17.58;87.02344;95003.91;;;;
2019/08/06 01:45:34;;;;;;;8.45;7.55;;;;;;;17.58;87.02344;95003.91;;;;
2019/08/06 01:46:35;;;;;;;8.45;7.55;;;;;;;17.58;87.02344;95003.91;;;;
2019/08/06 01:47:37;;;;;;;8.5;7.400001;;;;;;;17.38;88.01074;94993.12;;;;
2019/08/06 01:48:38;;;;;;;8.5;7.400001;;;;;;;17.38;88.01074;94993.12;;;;
2019/08/06 01:49:39;;;;;;;8.5;7.400001;;;;;;;17.38;88.01074;94993.12;;;;
2019/08/06 01:50:41;;;;;;;8.5;7.400001;;;;;;;17.38;88.01074;94993.12;;;;
2019/08/06 01:51:42;;;;;;;8.5;7.400001;;;;;;;17.38;88.01074;94993.12;;;;
2019/08/06 01:52:43;;;;;;;8.5;7.400001;;;;;;;17.38;88.01074;94993.12;;;;
2019/08/06 01:53:44;;;;;;;8.5;7.400001;;;;;;;17.38;88.01074;94993.12;;;;
2019/08/06 01:54:46;;;;;;;8.5;7.400001;;;;;;;17.38;88.01074;94993.12;;;;
2019/08/06 01:55:47;;;;;;;8.5;7.400001;;;;;;;17.38;88.01074;94993.12;;;;
2019/08/06 01:56:48;;;;;;;8.5;7.400001;;;;;;;17.38;88.01074;94993.12;;;;
2019/08/06 01:57:49;;;;;;;8.5;7.400001;;;;;;;17.38;88.01074;94993.12;;;;
2019/08/06 01:58:51;;;;;;;8.200002;7.500001;;;;;;;17.27;89.0166;95001.11;;;;
2019/08/06 01:59:52;;;;;;;8.200002;7.500001;;;;;;;17.27;89.0166;95001.11;;;;
2019/08/06 02:00:53;;;;;;;8.200002;7.500001;;;;;;;17.27;89.0166;95001.11;;;;
2019/08/06 02:02:08;;;;;;;8.200002;7.500001;;;;;;;17.27;89.0166;95001.11;;;;
2019/08/06 02:03:09;;;;;;;8.200002;7.500001;;;;;;;17.27;89.0166;95001.11;;;;
2019/08/06 02:04:10;;;;;;;8.200002;7.500001;;;;;;;17.27;89.0166;95001.11;;;;
2019/08/06 02:05:11;;;;;;;8.200002;7.500001;;;;;;;17.27;89.0166;95001.11;;;;
2019/08/06 02:06:13;;;;;;;8.200002;7.500001;;;;;;;17.27;89.0166;95001.11;;;;
2019/08/06 02:07:16;;;;;;;8.200002;7.500001;;;;;;;17.27;89.0166;95001.11;;;;
2019/08/06 02:08:17;;;;;;;8.200002;7.500001;;;;;;;17.27;89.0166;95001.11;;;;
2019/08/06 02:09:19;;;;;;;8.25;7.400001;;;;;;;17.16;89.91309;95007.36;;;;
2019/08/06 02:10:20;;;;;;;8.25;7.400001;;;;;;;17.16;89.91309;95007.36;;;;
2019/08/06 02:15:03;;;;;;;8.25;7.400001;;;;;;;17.16;89.91309;95007.36;;;;
2019/08/06 02:16:05;;;;;;;8.25;7.400001;;;;;;;17.16;89.91309;95007.36;;;;
2019/08/06 02:17:07;;;;;;;8.25;7.400001;;;;;;;17.16;89.91309;95007.36;;;;
2019/08/06 02:18:09;;;;;;;8.25;7.400001;;;;;;;17.16;89.91309;95007.36;;;;
2019/08/06 02:19:10;;;;;;;8.549999;7.749999;;;;;;;17.21;90.82227;95016.33;;;;
2019/08/06 02:20:11;;;;;;;8.549999;7.749999;;;;;;;17.21;90.82227;95016.33;;;;
2019/08/06 02:21:13;;;;;;;8.549999;7.749999;;;;;;;17.21;90.82227;95016.33;;;;
2019/08/06 02:22:15;;;;;;;8.549999;7.749999;;;;;;;17.21;90.82227;95016.33;;;;
2019/08/06 02:23:17;;;;;;;8.549999;7.749999;;;;;;;17.21;90.82227;95016.33;;;;
2019/08/06 02:24:18;;;;;;;8.549999;7.749999;;;;;;;17.21;90.82227;95016.33;;;;
2019/08/06 02:25:20;;;;;;;8.549999;7.749999;;;;;;;17.21;90.82227;95016.33;;;;
2019/08/06 02:26:21;;;;;;;8.549999;7.749999;;;;;;;17.21;90.82227;95016.33;;;;
2019/08/06 02:27:22;;;;;;;8.549999;7.749999;;;;;;;17.21;90.82227;95016.33;;;;
2019/08/06 02:28:24;;;;;;;8.549999;7.749999;;;;;;;17.21;90.82227;95016.33;;;;
2019/08/06 02:29:25;;;;;;;8.549999;7.749999;;;;;;;17.21;90.82227;95016.33;;;;
2019/08/06 02:30:26;;;;;;;7.6;6.900001;;;;;;;17.32;91.56738;95023.47;;;;
2019/08/06 02:31:40;;;;;;;7.6;6.900001;;;;;;;17.32;91.56738;95023.47;;;;
2019/08/06 02:32:41;;;;;;;7.6;6.900001;;;;;;;17.32;91.56738;95023.47;;;;
2019/08/06 02:33:42;;;;;;;7.6;6.900001;;;;;;;17.32;91.56738;95023.47;;;;
2019/08/06 02:34:43;;;;;;;7.6;6.900001;;;;;;;17.32;91.56738;95023.47;;;;
2019/08/06 02:35:45;;;;;;;7.6;6.900001;;;;;;;17.32;91.56738;95023.47;;;;
2019/08/06 02:36:47;;;;;;;7.6;6.900001;;;;;;;17.32;91.56738;95023.47;;;;
2019/08/06 02:37:48;;;;;;;7.6;6.900001;;;;;;;17.32;91.56738;95023.47;;;;
2019/08/06 02:38:49;;;;;;;7.6;6.900001;;;;;;;17.32;91.56738;95023.47;;;;
2019/08/06 02:39:50;;;;;;;7.6;6.900001;;;;;;;17.32;91.56738;95023.47;;;;
2019/08/06 02:40:51;;;;;;;7.800001;6.649999;;;;;;;17.62;92.09668;95040.88;;;;
2019/08/06 02:41:55;;;;;;;7.800001;6.649999;;;;;;;17.62;92.09668;95040.88;;;;
2019/08/06 02:42:56;;;;;;;7.800001;6.649999;;;;;;;17.62;92.09668;95040.88;;;;
2019/08/06 02:43:58;;;;;;;7.800001;6.649999;;;;;;;17.62;92.09668;95040.88;;;;
2019/08/06 02:44:59;;;;;;;7.800001;6.649999;;;;;;;17.62;92.09668;95040.88;;;;
2019/08/06 02:46:00;;;;;;;7.800001;6.649999;;;;;;;17.62;92.09668;95040.88;;;;
2019/08/06 02:47:02;;;;;;;7.800001;6.649999;;;;;;;17.62;92.09668;95040.88;;;;
2019/08/06 02:48:03;;;;;;;7.800001;6.649999;;;;;;;17.62;92.09668;95040.88;;;;
2019/08/06 02:49:04;;;;;;;7.800001;6.649999;;;;;;;17.62;92.09668;95040.88;;;;
2019/08/06 02:50:05;;;;;;;7.800001;6.649999;;;;;;;17.62;92.09668;95040.88;;;;
2019/08/06 02:51:08;;;;;;;7.85;6.25;;;;;;;17.84;91.90332;95042.21;;;;
2019/08/06 02:52:09;;;;;;;7.85;6.25;;;;;;;17.84;91.90332;95042.21;;;;
2019/08/06 02:53:10;;;;;;;7.85;6.25;;;;;;;17.84;91.90332;95042.21;;;;
2019/08/06 02:54:12;;;;;;;7.85;6.25;;;;;;;17.84;91.90332;95042.21;;;;
2019/08/06 02:55:13;;;;;;;7.85;6.25;;;;;;;17.84;91.90332;95042.21;;;;
2019/08/06 02:56:19;;;;;;;7.85;6.25;;;;;;;17.84;91.90332;95042.21;;;;
2019/08/06 02:57:20;;;;;;;7.85;6.25;;;;;;;17.84;91.90332;95042.21;;;;
2019/08/06 02:58:21;;;;;;;7.85;6.25;;;;;;;17.84;91.90332;95042.21;;;;
2019/08/06 02:59:22;;;;;;;7.85;6.25;;;;;;;17.84;91.90332;95042.21;;;;
2019/08/06 03:00:24;;;;;;;7.85;6.25;;;;;;;17.84;91.90332;95042.21;;;;
2019/08/06 03:01:26;;;;;;;7.85;6.25;;;;;;;17.84;91.90332;95042.21;;;;
2019/08/06 03:02:27;;;;;;;6.65;6.05;;;;;;;18.01;91.95117;95037.11;;;;
2019/08/06 03:03:28;;;;;;;6.65;6.05;;;;;;;18.01;91.95117;95037.11;;;;
2019/08/06 03:04:31;;;;;;;6.65;6.05;;;;;;;18.01;91.95117;95037.11;;;;
2019/08/06 03:05:32;;;;;;;6.65;6.05;;;;;;;18.01;91.95117;95037.11;;;;
2019/08/06 03:06:33;;;;;;;6.65;6.05;;;;;;;18.01;91.95117;95037.11;;;;
2019/08/06 03:07:35;;;;;;;6.65;6.05;;;;;;;18.01;91.95117;95037.11;;;;
2019/08/06 03:08:36;;;;;;;6.65;6.05;;;;;;;18.01;91.95117;95037.11;;;;
2019/08/06 03:09:37;;;;;;;6.65;6.05;;;;;;;18.01;91.95117;95037.11;;;;
2019/08/06 03:10:38;;;;;;;6.65;6.05;;;;;;;18.01;91.95117;95037.11;;;;
2019/08/06 03:11:39;;;;;;;6.65;6.05;;;;;;;18.01;91.95117;95037.11;;;;
2019/08/06 03:12:41;;;;;;;6.849999;6.149999;;;;;;;18.06;91.98242;95050.3;;;;
2019/08/06 03:13:42;;;;;;;6.849999;6.149999;;;;;;;18.06;91.98242;95050.3;;;;
2019/08/06 03:14:43;;;;;;;6.849999;6.149999;;;;;;;18.06;91.98242;95050.3;;;;
2019/08/06 03:15:44;;;;;;;6.849999;6.149999;;;;;;;18.06;91.98242;95050.3;;;;
2019/08/06 03:16:46;;;;;;;6.849999;6.149999;;;;;;;18.06;91.98242;95050.3;;;;
2019/08/06 03:17:47;;;;;;;6.849999;6.149999;;;;;;;18.06;91.98242;95050.3;;;;
2019/08/06 03:18:48;;;;;;;6.849999;6.149999;;;;;;;18.06;91.98242;95050.3;;;;
2019/08/06 03:19:50;;;;;;;6.849999;6.149999;;;;;;;18.06;91.98242;95050.3;;;;
2019/08/06 03:20:51;;;;;;;6.849999;6.149999;;;;;;;18.06;91.98242;95050.3;;;;
2019/08/06 03:21:52;;;;;;;6.849999;6.149999;;;;;;;18.06;91.98242;95050.3;;;;
2019/08/06 03:22:53;;;;;;;6.250001;5.65;;;;;;;18.16;92.18652;95042.02;;;;
2019/08/06 03:23:54;;;;;;;6.250001;5.65;;;;;;;18.16;92.18652;95042.02;;;;
2019/08/06 03:24:55;;;;;;;6.250001;5.65;;;;;;;18.16;92.18652;95042.02;;;;
2019/08/06 03:25:56;;;;;;;6.250001;5.65;;;;;;;18.16;92.18652;95042.02;;;;
2019/08/06 03:26:58;;;;;;;6.250001;5.65;;;;;;;18.16;92.18652;95042.02;;;;
2019/08/06 03:27:59;;;;;;;6.250001;5.65;;;;;;;18.16;92.18652;95042.02;;;;
2019/08/06 03:29:00;;;;;;;6.250001;5.65;;;;;;;18.16;92.18652;95042.02;;;;
2019/08/06 03:30:01;;;;;;;6.250001;5.65;;;;;;;18.16;92.18652;95042.02;;;;
2019/08/06 03:31:04;;;;;;;6.250001;5.65;;;;;;;18.16;92.18652;95042.02;;;;
2019/08/06 03:32:20;;;;;;;6.250001;5.65;;;;;;;18.16;92.18652;95042.02;;;;
2019/08/06 03:33:22;;;;;;;6.250001;5.65;;;;;;;18.16;92.18652;95042.02;;;;
2019/08/06 03:34:23;;;;;;;6.349999;5.749999;;;;;;;18.21;92.25;95054.8;;;;
2019/08/06 03:35:24;;;;;;;6.349999;5.749999;;;;;;;18.21;92.25;95054.8;;;;
2019/08/06 03:36:25;;;;;;;6.349999;5.749999;;;;;;;18.21;92.25;95054.8;;;;
2019/08/06 03:37:26;;;;;;;6.349999;5.749999;;;;;;;18.21;92.25;95054.8;;;;
2019/08/06 03:38:27;;;;;;;6.349999;5.749999;;;;;;;18.21;92.25;95054.8;;;;
2019/08/06 03:39:29;;;;;;;6.349999;5.749999;;;;;;;18.21;92.25;95054.8;;;;
2019/08/06 03:40:30;;;;;;;6.349999;5.749999;;;;;;;18.21;92.25;95054.8;;;;
2019/08/06 03:41:31;;;;;;;6.349999;5.749999;;;;;;;18.21;92.25;95054.8;;;;
2019/08/06 03:42:32;;;;;;;6.349999;5.749999;;;;;;;18.21;92.25;95054.8;;;;
2019/08/06 03:43:33;;;;;;;6.349999;5.749999;;;;;;;18.21;92.25;95054.8;;;;
2019/08/06 03:44:34;;;;;;;6.3;5.7;;;;;;;18.35;92.61523;95056.57;;;;
2019/08/06 03:45:36;;;;;;;6.3;5.7;;;;;;;18.35;92.61523;95056.57;;;;
2019/08/06 03:46:37;;;;;;;6.3;5.7;;;;;;;18.35;92.61523;95056.57;;;;
2019/08/06 03:47:38;;;;;;;6.3;5.7;;;;;;;18.35;92.61523;95056.57;;;;
2019/08/06 03:48:39;;;;;;;6.3;5.7;;;;;;;18.35;92.61523;95056.57;;;;
2019/08/06 03:49:41;;;;;;;6.3;5.7;;;;;;;18.35;92.61523;95056.57;;;;
2019/08/06 03:50:42;;;;;;;6.3;5.7;;;;;;;18.35;92.61523;95056.57;;;;
2019/08/06 03:51:43;;;;;;;6.3;5.7;;;;;;;18.35;92.61523;95056.57;;;;
2019/08/06 03:52:44;;;;;;;6.3;5.7;;;;;;;18.35;92.61523;95056.57;;;;
2019/08/06 03:53:45;;;;;;;6.3;5.7;;;;;;;18.35;92.61523;95056.57;;;;
2019/08/06 03:54:46;;;;;;;5.900001;5.400001;;;;;;;18.53;92.54395;95055.03;;;;
2019/08/06 03:55:47;;;;;;;5.900001;5.400001;;;;;;;18.53;92.54395;95055.03;;;;
2019/08/06 03:56:49;;;;;;;5.900001;5.400001;;;;;;;18.53;92.54395;95055.03;;;;
2019/08/06 03:57:50;;;;;;;5.900001;5.400001;;;;;;;18.53;92.54395;95055.03;;;;
2019/08/06 03:58:51;;;;;;;5.900001;5.400001;;;;;;;18.53;92.54395;95055.03;;;;
2019/08/06 03:59:52;;;;;;;5.900001;5.400001;;;;;;;18.53;92.54395;95055.03;;;;
2019/08/06 04:00:53;;;;;;;5.900001;5.400001;;;;;;;18.53;92.54395;95055.03;;;;
2019/08/06 04:01:54;;;;;;;5.900001;5.400001;;;;;;;18.53;92.54395;95055.03;;;;
2019/08/06 04:02:55;;;;;;;5.900001;5.400001;;;;;;;18.53;92.54395;95055.03;;;;
2019/08/06 04:03:56;;;;;;;5.900001;5.400001;;;;;;;18.53;92.54395;95055.03;;;;
2019/08/06 04:04:58;;;;;;;5.900001;5.400001;;;;;;;18.53;92.54395;95055.03;;;;
2019/08/06 04:05:59;;;;;;;5.749999;5.249999;;;;;;;18.77;92.37598;95080.88;;;;
2019/08/06 04:07:00;;;;;;;5.749999;5.249999;;;;;;;18.77;92.37598;95080.88;;;;
2019/08/06 04:08:01;;;;;;;5.749999;5.249999;;;;;;;18.77;92.37598;95080.88;;;;
2019/08/06 04:09:03;;;;;;;5.749999;5.249999;;;;;;;18.77;92.37598;95080.88;;;;
2019/08/06 04:10:06;;;;;;;5.749999;5.249999;;;;;;;18.77;92.37598;95080.88;;;;
2019/08/06 04:11:08;;;;;;;5.749999;5.249999;;;;;;;18.77;92.37598;95080.88;;;;
2019/08/06 04:12:09;;;;;;;5.749999;5.249999;;;;;;;18.77;92.37598;95080.88;;;;
2019/08/06 04:13:10;;;;;;;5.749999;5.249999;;;;;;;18.77;92.37598;95080.88;;;;
2019/08/06 04:14:11;;;;;;;5.749999;5.249999;;;;;;;18.77;92.37598;95080.88;;;;
2019/08/06 04:15:13;;;;;;;5.749999;5.249999;;;;;;;18.77;92.37598;95080.88;;;;
2019/08/06 04:16:14;;;;;;;4.95;4.55;;;;;;;18.96;92.40625;95069;;;;
2019/08/06 04:17:15;;;;;;;4.95;4.55;;;;;;;18.96;92.40625;95069;;;;
2019/08/06 04:18:16;;;;;;;4.95;4.55;;;;;;;18.96;92.40625;95069;;;;
2019/08/06 04:19:17;;;;;;;4.95;4.55;;;;;;;18.96;92.40625;95069;;;;
2019/08/06 04:20:19;;;;;;;4.95;4.55;;;;;;;18.96;92.40625;95069;;;;
2019/08/06 04:21:20;;;;;;;4.95;4.55;;;;;;;18.96;92.40625;95069;;;;
2019/08/06 04:22:21;;;;;;;4.95;4.55;;;;;;;18.96;92.40625;95069;;;;
2019/08/06 04:23:23;;;;;;;4.95;4.55;;;;;;;18.96;92.40625;95069;;;;
2019/08/06 04:24:24;;;;;;;4.95;4.55;;;;;;;18.96;92.40625;95069;;;;
2019/08/06 04:25:25;;;;;;;4.95;4.55;;;;;;;18.96;92.40625;95069;;;;
2019/08/06 04:26:26;;;;;;;4.95;4.55;;;;;;;18.96;92.40625;95069;;;;
2019/08/06 04:27:27;;;;;;;5.2;4.7;;;;;;;19.16;92.30566;95051.36;;;;
2019/08/06 04:28:28;;;;;;;5.2;4.7;;;;;;;19.16;92.30566;95051.36;;;;
2019/08/06 04:29:29;;;;;;;5.2;4.7;;;;;;;19.16;92.30566;95051.36;;;;
2019/08/06 04:30:31;;;;;;;5.2;4.7;;;;;;;19.16;92.30566;95051.36;;;;
2019/08/06 04:31:45;;;;;;;5.2;4.7;;;;;;;19.16;92.30566;95051.36;;;;
2019/08/06 04:32:47;;;;;;;5.2;4.7;;;;;;;19.16;92.30566;95051.36;;;;
2019/08/06 04:33:48;;;;;;;5.2;4.7;;;;;;;19.16;92.30566;95051.36;;;;
2019/08/06 04:34:49;;;;;;;5.2;4.7;;;;;;;19.16;92.30566;95051.36;;;;
2019/08/06 04:35:50;;;;;;;5.2;4.7;;;;;;;19.16;92.30566;95051.36;;;;
2019/08/06 04:36:53;;;;;;;5.2;4.7;;;;;;;19.16;92.30566;95051.36;;;;
2019/08/06 04:37:54;;;;;;;4.5;4.1;;;;;;;19.28;92.29688;95049.16;;;;
2019/08/06 04:38:55;;;;;;;4.5;4.1;;;;;;;19.28;92.29688;95049.16;;;;
2019/08/06 04:39:58;;;;;;;4.5;4.1;;;;;;;19.28;92.29688;95049.16;;;;
2019/08/06 04:44:54;;;;;;;4.5;4.1;;;;;;;19.28;92.29688;95049.16;;;;
2019/08/06 04:45:55;;;;;;;4.5;4.1;;;;;;;19.28;92.29688;95049.16;;;;
2019/08/06 04:46:56;;;;;;;4.5;4.1;;;;;;;19.28;92.29688;95049.16;;;;
2019/08/06 04:47:57;;;;;;;4.15;3.75;;;;;;;19.39;92.16797;95062.42;;;;
2019/08/06 04:48:58;;;;;;;4.15;3.75;;;;;;;19.39;92.16797;95062.42;;;;
2019/08/06 04:49:59;;;;;;;4.15;3.75;;;;;;;19.39;92.16797;95062.42;;;;
2019/08/06 04:51:00;;;;;;;4.15;3.75;;;;;;;19.39;92.16797;95062.42;;;;
2019/08/06 04:52:02;;;;;;;4.15;3.75;;;;;;;19.39;92.16797;95062.42;;;;
2019/08/06 04:53:03;;;;;;;4.15;3.75;;;;;;;19.39;92.16797;95062.42;;;;
2019/08/06 04:54:05;;;;;;;4.15;3.75;;;;;;;19.39;92.16797;95062.42;;;;
2019/08/06 04:55:06;;;;;;;4.15;3.75;;;;;;;19.39;92.16797;95062.42;;;;
2019/08/06 04:56:07;;;;;;;4.15;3.75;;;;;;;19.39;92.16797;95062.42;;;;
2019/08/06 04:57:09;;;;;;;4.15;3.75;;;;;;;19.39;92.16797;95062.42;;;;
2019/08/06 04:58:10;;;;;;;4.15;3.75;;;;;;;19.39;92.16797;95062.42;;;;
2019/08/06 04:59:11;;;;;;;4.55;4;;;;;;;19.41;92.31348;95068.01;;;;
2019/08/06 05:00:12;;;;;;;4.55;4;;;;;;;19.41;92.31348;95068.01;;;;
2019/08/06 05:01:14;;;;;;;4.55;4;;;;;;;19.41;92.31348;95068.01;;;;
2019/08/06 05:02:46;;;;;;;4.55;4;;;;;;;19.41;92.31348;95068.01;;;;
2019/08/06 05:03:47;;;;;;;4.55;4;;;;;;;19.41;92.31348;95068.01;;;;
2019/08/06 05:04:48;;;;;;;4.55;4;;;;;;;19.41;92.31348;95068.01;;;;
2019/08/06 05:05:50;;;;;;;4.55;4;;;;;;;19.41;92.31348;95068.01;;;;
2019/08/06 05:06:51;;;;;;;4.55;4;;;;;;;19.41;92.31348;95068.01;;;;
2019/08/06 05:07:52;;;;;;;4.55;4;;;;;;;19.41;92.31348;95068.01;;;;
2019/08/06 05:08:54;;;;;;;4.55;4;;;;;;;19.41;92.31348;95068.01;;;;
2019/08/06 05:09:55;;;;;;;4.2;3.8;;;;;;;19.52;92.31445;95027.03;;;;
2019/08/06 05:10:56;;;;;;;4.2;3.8;;;;;;;19.52;92.31445;95027.03;;;;
2019/08/06 05:11:57;;;;;;;4.2;3.8;;;;;;;19.52;92.31445;95027.03;;;;
2019/08/06 05:12:58;;;;;;;4.2;3.8;;;;;;;19.52;92.31445;95027.03;;;;
2019/08/06 05:13:59;;;;;;;4.2;3.8;;;;;;;19.52;92.31445;95027.03;;;;
2019/08/06 05:15:01;;;;;;;4.2;3.8;;;;;;;19.52;92.31445;95027.03;;;;
2019/08/06 05:16:03;;;;;;;4.2;3.8;;;;;;;19.52;92.31445;95027.03;;;;
2019/08/06 05:17:04;;;;;;;4.2;3.8;;;;;;;19.52;92.31445;95027.03;;;;
2019/08/06 05:18:05;;;;;;;4.2;3.8;;;;;;;19.52;92.31445;95027.03;;;;
2019/08/06 05:19:06;;;;;;;4.2;3.8;;;;;;;19.52;92.31445;95027.03;;;;
2019/08/06 05:20:08;;;;;;;4;3.5;;;;;;;19.31;92.20703;94987.81;;;;
2019/08/06 05:21:10;;;;;;;4;3.5;;;;;;;19.31;92.20703;94987.81;;;;
2019/08/06 05:22:11;;;;;;;4;3.5;;;;;;;19.31;92.20703;94987.81;;;;
2019/08/06 05:23:12;;;;;;;4;3.5;;;;;;;19.31;92.20703;94987.81;;;;
2019/08/06 05:24:14;;;;;;;4;3.5;;;;;;;19.31;92.20703;94987.81;;;;
2019/08/06 05:25:15;;;;;;;4;3.5;;;;;;;19.31;92.20703;94987.81;;;;
2019/08/06 05:26:16;;;;;;;4;3.5;;;;;;;19.31;92.20703;94987.81;;;;
2019/08/06 05:27:17;;;;;;;4;3.5;;;;;;;19.31;92.20703;94987.81;;;;
2019/08/06 05:28:18;;;;;;;4;3.5;;;;;;;19.31;92.20703;94987.81;;;;
2019/08/06 05:29:20;;;;;;;4;3.5;;;;;;;19.31;92.20703;94987.81;;;;
2019/08/06 05:30:21;;;;;;;4;3.299999;;;;;;;18.93;93.43945;95081.09;;;;
2019/08/06 05:31:46;;;;;;;4;3.299999;;;;;;;18.93;93.43945;95081.09;;;;
2019/08/06 05:32:47;;;;;;;4;3.299999;;;;;;;18.93;93.43945;95081.09;;;;
2019/08/06 05:33:48;;;;;;;4;3.299999;;;;;;;18.93;93.43945;95081.09;;;;
2019/08/06 05:34:49;;;;;;;4;3.299999;;;;;;;18.93;93.43945;95081.09;;;;
2019/08/06 05:35:50;;;;;;;4;3.299999;;;;;;;18.93;93.43945;95081.09;;;;
2019/08/06 05:36:52;;;;;;;4;3.299999;;;;;;;18.93;93.43945;95081.09;;;;
2019/08/06 05:37:53;;;;;;;4;3.299999;;;;;;;18.93;93.43945;95081.09;;;;
2019/08/06 05:38:54;;;;;;;4;3.299999;;;;;;;18.93;93.43945;95081.09;;;;
2019/08/06 05:39:55;;;;;;;4;3.299999;;;;;;;18.93;93.43945;95081.09;;;;
2019/08/06 05:40:56;;;;;;;5.750001;4.05;;;;;;;18.65;94.49805;95072.28;;;;
2019/08/06 05:41:59;;;;;;;5.750001;4.05;;;;;;;18.65;94.49805;95072.28;;;;
2019/08/06 05:43:01;;;;;;;5.750001;4.05;;;;;;;18.65;94.49805;95072.28;;;;
2019/08/06 05:44:02;;;;;;;5.750001;4.05;;;;;;;18.65;94.49805;95072.28;;;;
2019/08/06 05:45:04;;;;;;;5.750001;4.05;;;;;;;18.65;94.49805;95072.28;;;;